Accueil
METAR-TAF:

METAR-TAF

Aéroports :

Obihiro, Japon

latitude: 42-44N, longitude: 143-13E, altitude: 149 m

Observation

Le bulletin a été fait il y a 1 heure et 3 minutes, à 05:00 UTC
Vent 8 kt de sud/sud-est
Température 26°C
Humidité 70%
Pression 1006 hPa
Visibilité 10 km ou plus
Quelques nuages à une hauteur de 2000 ft
Nuages épars à une hauteur de 3000 ft
Nuages fragmentés

METAR: RJCB 250500Z 15008KT 9999 FEW020 SCT030 BKN/// 26/20 Q1006

Heure: 15:03 (06:03 UTC)

Prévision

Le bulletin a été fait il y a 58 minutes, à 05:05 UTC
Prévision valable du 25 à 06 UTC au 26 à 12 UTC
Vent 7 kt de sud-est
Visibilité 10 km ou plus
Quelques nuages à une hauteur de 1500 ft
Nuages fragmentés à une hauteur de 5000 ft
Temporairement
du 25 à 12 UTC au 26 à 00 UTC
Quelques nuages à une hauteur de 300 ft
Nuages fragmentés à une hauteur de 600 ft

TAF: RJCB 250505Z 2506/2612 14007KT 9999 FEW015 BKN050 TEMPO 2512/2600 FEW003 BKN006

Observations et prévisions météorologiques de plus de 4000 aéroports (messages METAR et TAF).

Les stations disponibles sont représentées par des disques jaunes et rouges sur la carte.

Passer la souris dessus pour voir le nom de la station.

Cliquer dessus pour voir les observations et prévisions météorologiques.

Pour changer de carte: cliquez sur les boutons verts avec une croix noire pour zoomer, sur le bouton vert avec un tiret pour effectuer un zoom arrière, ou sur les flèches vertes pour les cartes adjacentes.


METAR-TAF: